Time;durP1;ratioP1;P1;durP2;ratioP2;P2;SDS_P1;SDS_P2;PMS_P1;PMS_P2;Temp;Humidity;BMP_temperature;BMP_pressure;BME280_temperature;BME280_humidity;BME280_pressure;Samples;Min_cycle;Max_cycle;Signal;HPM_P1;HPM_P2
2023/07/09 00:02:24;;;;;;;1999.90;999.90;;;23.00;99.90;;;;;;5135825;27;20051;-74
2023/07/09 00:04:50;;;;;;;1999.90;999.90;;;23.00;99.90;;;;;;5154809;27;20526;-74
2023/07/09 00:07:24;;;;;;;1999.90;999.90;;;23.00;99.90;;;;;;5154688;27;20059;-74
2023/07/09 00:09:50;;;;;;;1999.90;999.90;;;23.00;99.90;;;;;;5154717;27;20047;-73
2023/07/09 00:12:18;;;;;;;1999.90;999.90;;;23.00;99.90;;;;;;5154279;27;20039;-73
2023/07/09 00:14:44;;;;;;;1999.90;999.90;;;23.00;99.90;;;;;;5154385;27;20545;-74
2023/07/09 00:17:19;;;;;;;1999.90;999.90;;;22.90;99.90;;;;;;5154710;27;20165;-73
2023/07/09 00:19:45;;;;;;;1999.90;999.90;;;22.90;99.90;;;;;;5158418;27;20051;-74
2023/07/09 00:22:16;;;;;;;1999.90;999.90;;;22.90;99.90;;;;;;5158403;27;20073;-74
2023/07/09 00:24:47;;;;;;;1999.90;999.90;;;22.90;99.90;;;;;;5158320;27;20347;-74
2023/07/09 00:27:14;;;;;;;1999.90;999.90;;;22.80;99.90;;;;;;5158006;27;20050;-75
2023/07/09 00:29:41;;;;;;;1999.90;999.90;;;22.80;99.90;;;;;;5158010;27;20141;-74
2023/07/09 00:32:20;;;;;;;1999.90;999.90;;;22.80;99.90;;;;;;5158140;27;20573;-75
2023/07/09 00:34:49;;;;;;;1999.90;999.90;;;22.80;99.90;;;;;;5158206;27;20054;-75
2023/07/09 00:37:21;;;;;;;1999.90;999.90;;;22.70;99.90;;;;;;5157989;27;20057;-74
2023/07/09 00:39:48;;;;;;;1999.90;999.90;;;22.70;99.90;;;;;;5139877;27;20047;-74
2023/07/09 00:42:17;;;;;;;1999.90;999.90;;;22.60;99.90;;;;;;5157925;27;20050;-74
2023/07/09 00:44:45;;;;;;;1999.90;999.90;;;22.70;99.90;;;;;;5139636;27;20443;-74
2023/07/09 00:47:24;;;;;;;1999.90;999.90;;;22.60;99.90;;;;;;5157772;27;20046;-74
2023/07/09 00:50:18;;;;;;;1999.90;999.90;;;22.60;99.90;;;;;;5157881;27;20039;-74
2023/07/09 00:52:53;;;;;;;1999.90;999.90;;;22.50;99.90;;;;;;5153426;27;20096;-73
2023/07/09 00:55:29;;;;;;;1999.90;999.90;;;22.50;99.90;;;;;;5139591;27;20050;-74
2023/07/09 00:57:58;;;;;;;1999.90;999.90;;;22.50;99.90;;;;;;5138846;27;20055;-73
2023/07/09 01:00:45;;;;;;;1999.90;999.90;;;22.40;99.90;;;;;;5157583;27;20038;-73
2023/07/09 01:03:20;;;;;;;1999.90;999.90;;;22.40;99.90;;;;;;5157343;27;20471;-74
2023/07/09 01:05:51;;;;;;;1999.90;999.90;;;22.40;99.90;;;;;;5138893;27;20043;-73
2023/07/09 01:08:19;;;;;;;1999.90;999.90;;;22.40;99.90;;;;;;5157409;27;20053;-74
2023/07/09 01:10:45;;;;;;;1999.90;999.90;;;22.30;99.90;;;;;;5157407;27;20446;-74
2023/07/09 01:13:11;;;;;;;1999.90;999.90;;;22.30;99.90;;;;;;5122487;27;20085;-73
2023/07/09 01:15:37;;;;;;;1999.90;999.90;;;22.30;99.90;;;;;;5157333;27;20056;-73
2023/07/09 01:18:04;;;;;;;1999.90;999.90;;;22.20;99.90;;;;;;5157242;27;20047;-73
2023/07/09 01:20:30;;;;;;;1999.90;999.90;;;22.20;99.90;;;;;;5157374;27;20082;-73
2023/07/09 01:22:56;;;;;;;1999.90;999.90;;;22.20;99.90;;;;;;5157158;27;20043;-73
2023/07/09 01:25:24;;;;;;;1999.90;999.90;;;22.20;99.90;;;;;;5138821;27;20095;-74
2023/07/09 01:27:50;;;;;;;1999.90;999.90;;;22.20;99.90;;;;;;5156340;27;20478;-73
2023/07/09 01:30:22;;;;;;;1999.90;999.90;;;22.10;99.90;;;;;;5156806;27;20053;-73
2023/07/09 01:32:51;;;;;;;1999.90;999.90;;;22.10;99.90;;;;;;5157451;27;20130;-73
2023/07/09 01:35:21;;;;;;;1999.90;999.90;;;22.10;99.90;;;;;;5138488;27;20042;-74
2023/07/09 01:37:47;;;;;;;1999.90;999.90;;;22.00;99.90;;;;;;5138553;27;20099;-73
2023/07/09 01:40:16;;;;;;;1999.90;999.90;;;22.00;99.90;;;;;;5156937;27;20043;-73
2023/07/09 01:42:42;;;;;;;1999.90;999.90;;;22.00;99.90;;;;;;5138555;27;20147;-74
2023/07/09 01:45:10;;;;;;;1999.90;999.90;;;21.90;99.90;;;;;;5156747;27;20058;-74
2023/07/09 01:47:36;;;;;;;1999.90;999.90;;;21.90;99.90;;;;;;5156758;27;20125;-68
2023/07/09 01:50:03;;;;;;;1999.90;999.90;;;21.90;99.90;;;;;;5157079;27;20047;-68
2023/07/09 01:52:31;;;;;;;1999.90;999.90;;;21.90;99.90;;;;;;5138735;27;20050;-67
2023/07/09 01:54:57;;;;;;;1999.90;999.90;;;21.90;99.90;;;;;;5156994;27;20050;-67
2023/07/09 01:57:32;;;;;;;1999.90;999.90;;;21.90;99.90;;;;;;5156826;27;20047;-67
2023/07/09 01:59:59;;;;;;;1999.90;999.90;;;21.80;99.90;;;;;;5156975;27;20121;-67
2023/07/09 02:02:26;;;;;;;1999.90;999.90;;;21.80;99.90;;;;;;5156903;27;20050;-67
2023/07/09 02:04:53;;;;;;;1999.90;999.90;;;21.80;99.90;;;;;;5156810;27;20046;-68
2023/07/09 02:07:22;;;;;;;1999.90;999.90;;;21.80;99.90;;;;;;5156774;27;20095;-68
2023/07/09 02:09:48;;;;;;;1999.90;999.90;;;21.80;99.90;;;;;;5138179;27;20070;-68
2023/07/09 02:12:15;;;;;;;1999.90;999.90;;;21.80;99.90;;;;;;5138061;27;20081;-68
2023/07/09 02:14:42;;;;;;;1999.90;999.90;;;21.80;99.90;;;;;;5157489;27;20074;-67
2023/07/09 02:17:08;;;;;;;1999.90;999.90;;;21.70;99.90;;;;;;5138125;27;20065;-67
2023/07/09 02:19:34;;;;;;;1999.90;999.90;;;21.70;99.90;;;;;;5156506;27;20043;-68
2023/07/09 02:22:00;;;;;;;1999.90;999.90;;;21.70;99.90;;;;;;5156977;27;20053;-68
2023/07/09 02:24:27;;;;;;;1999.90;999.90;;;21.70;99.90;;;;;;5156037;27;20486;-67
2023/07/09 02:26:57;;;;;;;1999.90;999.90;;;21.70;99.90;;;;;;5156318;27;20058;-67
2023/07/09 02:29:24;;;;;;;1999.90;999.90;;;21.60;99.90;;;;;;5121679;27;20070;-67
2023/07/09 02:31:52;;;;;;;1999.90;999.90;;;21.60;99.90;;;;;;5134532;27;20103;-68
2023/07/09 02:34:19;;;;;;;1999.90;999.90;;;21.60;99.90;;;;;;5134655;27;20055;-67
2023/07/09 02:36:45;;;;;;;1999.90;999.90;;;21.50;99.90;;;;;;5135211;27;20502;-68
2023/07/09 02:39:12;;;;;;;1999.90;999.90;;;21.40;99.90;;;;;;5134443;27;20094;-67
2023/07/09 02:41:39;;;;;;;1999.90;999.90;;;21.40;99.90;;;;;;5134564;27;20501;-68
2023/07/09 02:44:05;;;;;;;1999.90;999.90;;;21.40;99.90;;;;;;5135283;27;20138;-68
2023/07/09 02:46:31;;;;;;;1999.90;999.90;;;21.40;99.90;;;;;;5135828;27;20079;-67
2023/07/09 02:48:57;;;;;;;1999.90;999.90;;;21.40;99.90;;;;;;5135245;27;20035;-68
2023/07/09 02:51:26;;;;;;;1999.90;999.90;;;21.40;99.90;;;;;;5135067;27;20050;-68
2023/07/09 02:53:55;;;;;;;1999.90;999.90;;;21.40;99.90;;;;;;5135181;27;20452;-68
2023/07/09 02:56:21;;;;;;;1999.90;999.90;;;21.30;99.90;;;;;;5135103;27;20051;-67
2023/07/09 02:58:47;;;;;;;1999.90;999.90;;;21.30;99.90;;;;;;5135030;27;20058;-67
2023/07/09 03:01:13;;;;;;;1999.90;999.90;;;21.30;99.90;;;;;;5135101;27;20043;-67
2023/07/09 03:03:39;;;;;;;1999.90;999.90;;;21.20;99.90;;;;;;5133826;27;20067;-67
2023/07/09 03:06:06;;;;;;;1999.90;999.90;;;21.20;99.90;;;;;;5134416;27;20058;-67
2023/07/09 03:08:32;;;;;;;1999.90;999.90;;;21.20;99.90;;;;;;5134980;27;20043;-68
2023/07/09 03:10:58;;;;;;;1999.90;999.90;;;21.10;99.90;;;;;;5117519;27;20456;-67
2023/07/09 03:13:24;;;;;;;1999.90;999.90;;;21.10;99.90;;;;;;5133644;27;20054;-67
2023/07/09 03:15:59;;;;;;;1999.90;999.90;;;21.10;99.90;;;;;;5135657;27;20043;-67
2023/07/09 03:18:25;;;;;;;1999.90;999.90;;;21.10;99.90;;;;;;5134855;27;20058;-66
2023/07/09 03:20:51;;;;;;;1999.90;999.90;;;21.10;99.90;;;;;;5135117;27;20386;-67
2023/07/09 03:23:17;;;;;;;1999.90;999.90;;;21.00;99.90;;;;;;5134727;27;20043;-67
2023/07/09 03:25:44;;;;;;;1999.90;999.90;;;21.00;99.90;;;;;;5135056;27;20043;-68
2023/07/09 03:28:10;;;;;;;1999.90;999.90;;;21.00;99.90;;;;;;5134677;27;20051;-68
2023/07/09 03:30:41;;;;;;;1999.90;999.90;;;21.00;99.90;;;;;;5134572;27;20055;-68
2023/07/09 03:33:07;;;;;;;1999.90;999.90;;;21.00;99.90;;;;;;5149782;27;20062;-68
2023/07/09 03:35:34;;;;;;;1999.90;999.90;;;20.90;99.90;;;;;;5155867;27;20076;-67
2023/07/09 03:38:00;;;;;;;1999.90;999.90;;;20.90;99.90;;;;;;5155836;27;20045;-67
2023/07/09 03:40:26;;;;;;;1999.90;999.90;;;20.90;99.90;;;;;;5137029;27;20118;-68
2023/07/09 03:42:52;;;;;;;1999.90;999.90;;;20.90;99.90;;;;;;5155251;27;20121;-68
2023/07/09 03:45:17;;;;;;;1999.90;999.90;;;20.80;99.90;;;;;;5136991;27;20038;-67
2023/07/09 03:47:43;;;;;;;1999.90;999.90;;;20.80;99.90;;;;;;5137403;27;20042;-68
2023/07/09 03:50:11;;;;;;;1999.90;999.90;;;20.80;99.90;;;;;;5155211;27;20085;-68
2023/07/09 03:52:37;;;;;;;1999.90;999.90;;;20.80;99.90;;;;;;5156186;27;20039;-67
2023/07/09 03:55:04;;;;;;;1999.90;999.90;;;20.80;99.90;;;;;;5160546;27;20057;-67
2023/07/09 03:57:33;;;;;;;1999.90;999.90;;;20.80;99.90;;;;;;5159324;27;20051;-67
2023/07/09 03:59:59;;;;;;;1999.90;999.90;;;20.80;99.90;;;;;;5159563;27;20043;-67
2023/07/09 04:02:25;;;;;;;1999.90;999.90;;;20.80;99.90;;;;;;5159218;27;20049;-67
2023/07/09 04:04:51;;;;;;;1999.90;999.90;;;20.70;99.90;;;;;;5140728;27;20042;-69
2023/07/09 04:07:17;;;;;;;1999.90;999.90;;;20.70;99.90;;;;;;5159954;27;20038;-68
2023/07/09 04:09:42;;;;;;;1999.90;999.90;;;20.70;99.90;;;;;;5141240;27;20038;-68
2023/07/09 04:12:11;;;;;;;1999.90;999.90;;;20.70;99.90;;;;;;5159264;27;20091;-68
2023/07/09 04:14:38;;;;;;;1999.90;999.90;;;20.70;99.90;;;;;;5161051;27;20038;-68
2023/07/09 04:17:03;;;;;;;1999.90;999.90;;;20.70;99.90;;;;;;5142353;27;20039;-68
2023/07/09 04:19:29;;;;;;;1999.90;999.90;;;20.80;99.90;;;;;;5159504;27;20530;-69
2023/07/09 04:21:55;;;;;;;1999.90;999.90;;;20.70;99.90;;;;;;5158793;27;20095;-68
2023/07/09 04:24:21;;;;;;;1999.90;999.90;;;20.80;99.90;;;;;;5158807;27;20072;-69
2023/07/09 04:26:47;;;;;;;1999.90;999.90;;;20.80;99.90;;;;;;5140426;27;20058;-68
2023/07/09 04:29:13;;;;;;;1999.90;999.90;;;20.80;99.90;;;;;;5158613;27;20046;-69
2023/07/09 04:31:40;;;;;;;1999.90;999.90;;;20.80;99.90;;;;;;5122774;27;20046;-69
2023/07/09 04:34:07;;;;;;;1999.90;999.90;;;20.80;99.90;;;;;;5159261;27;20398;-68
2023/07/09 04:36:33;;;;;;;1999.90;999.90;;;20.80;99.90;;;;;;5158569;27;20042;-68
2023/07/09 04:38:59;;;;;;;1999.90;999.90;;;20.90;99.90;;;;;;5140251;27;20046;-68
2023/07/09 04:41:25;;;;;;;1999.90;999.90;;;20.90;99.90;;;;;;5159338;27;20054;-68
2023/07/09 04:43:50;;;;;;;1999.90;999.90;;;20.90;99.90;;;;;;5159271;27;20043;-68
2023/07/09 04:46:16;;;;;;;1999.90;999.90;;;20.90;99.90;;;;;;5158441;27;20042;-69
2023/07/09 04:48:42;;;;;;;1999.90;999.90;;;21.00;99.90;;;;;;5158376;27;20043;-69
2023/07/09 04:51:08;;;;;;;1999.90;999.90;;;21.00;99.90;;;;;;5158232;27;20385;-69
2023/07/09 04:53:34;;;;;;;1999.90;999.90;;;21.00;99.90;;;;;;5139801;27;20049;-69
2023/07/09 04:56:00;;;;;;;1999.90;999.90;;;21.10;99.90;;;;;;5159027;27;20046;-69
2023/07/09 04:58:26;;;;;;;1999.90;999.90;;;21.10;99.90;;;;;;5140695;27;20370;-69
2023/07/09 05:00:52;;;;;;;1999.90;999.90;;;21.10;99.90;;;;;;5158229;27;20038;-68
2023/07/09 05:03:19;;;;;;;1999.90;999.90;;;21.20;99.90;;;;;;5157522;27;20496;-68
2023/07/09 05:05:46;;;;;;;1999.90;999.90;;;21.20;99.90;;;;;;5139567;27;20133;-69
2023/07/09 05:08:13;;;;;;;1999.90;999.90;;;21.20;99.90;;;;;;5158509;27;20104;-69
2023/07/09 05:10:42;;;;;;;1999.90;999.90;;;21.30;99.90;;;;;;5157854;27;20046;-68
2023/07/09 05:13:08;;;;;;;1999.90;999.90;;;21.30;99.90;;;;;;5158148;27;20055;-68
2023/07/09 05:15:34;;;;;;;1999.90;999.90;;;21.30;99.90;;;;;;5158161;27;20046;-68
2023/07/09 05:17:59;;;;;;;1999.90;999.90;;;21.40;99.90;;;;;;5158351;27;20413;-68
2023/07/09 05:20:25;;;;;;;1999.90;999.90;;;21.40;99.90;;;;;;5139431;27;20046;-68
2023/07/09 05:22:51;;;;;;;1999.90;999.90;;;21.40;99.90;;;;;;5139526;27;20046;-68
2023/07/09 05:25:17;;;;;;;1999.90;999.90;;;21.50;99.90;;;;;;5139840;27;20411;-68
2023/07/09 05:27:43;;;;;;;1999.90;999.90;;;21.50;99.90;;;;;;5157778;27;20051;-68
2023/07/09 05:30:09;;;;;;;1999.90;999.90;;;21.60;99.90;;;;;;5122154;27;20046;-68
2023/07/09 05:32:36;;;;;;;1999.90;999.90;;;21.60;99.90;;;;;;5157278;27;20062;-68
2023/07/09 05:35:02;;;;;;;1999.90;999.90;;;21.70;99.90;;;;;;5139175;27;20050;-69
2023/07/09 05:37:28;;;;;;;1999.90;999.90;;;21.70;99.90;;;;;;5157351;27;20386;-69
2023/07/09 05:39:54;;;;;;;1999.90;999.90;;;21.70;99.90;;;;;;5122552;27;20095;-69
2023/07/09 05:42:20;;;;;;;1999.90;999.90;;;21.80;99.90;;;;;;5157872;27;20436;-69
2023/07/09 05:44:46;;;;;;;1999.90;999.90;;;21.90;99.90;;;;;;5157275;27;20042;-68
2023/07/09 05:47:12;;;;;;;1999.90;999.90;;;22.00;99.90;;;;;;5157572;27;20104;-69
2023/07/09 05:49:38;;;;;;;1999.90;999.90;;;22.00;99.90;;;;;;5156897;27;20088;-70
2023/07/09 05:52:04;;;;;;;1999.90;999.90;;;22.10;99.90;;;;;;5157108;27;20034;-68
2023/07/09 05:54:31;;;;;;;1999.90;999.90;;;22.20;99.90;;;;;;5157083;27;20371;-68
2023/07/09 05:56:57;;;;;;;1999.90;999.90;;;22.20;99.90;;;;;;5156648;27;20053;-67
2023/07/09 05:59:23;;;;;;;1999.90;999.90;;;22.30;99.90;;;;;;5138373;27;20042;-67
2023/07/09 06:01:48;;;;;;;1999.90;999.90;;;22.30;99.90;;;;;;5138604;27;20050;-67
2023/07/09 06:04:14;;;;;;;1999.90;999.90;;;22.40;99.90;;;;;;5138548;27;20039;-67
2023/07/09 06:06:43;;;;;;;1999.90;999.90;;;22.40;99.90;;;;;;5157615;27;20122;-67
2023/07/09 06:09:08;;;;;;;1999.90;999.90;;;22.50;99.90;;;;;;5156716;27;20183;-66
2023/07/09 06:11:35;;;;;;;1999.90;999.90;;;22.60;99.90;;;;;;5138228;27;20121;-66
2023/07/09 06:14:01;;;;;;;1999.90;999.90;;;22.60;99.90;;;;;;5156643;27;20106;-67
2023/07/09 06:16:27;;;;;;;1999.90;999.90;;;22.70;99.90;;;;;;5155749;27;20038;-66
2023/07/09 06:18:53;;;;;;;1999.90;999.90;;;22.70;99.90;;;;;;5156544;27;20046;-66
2023/07/09 06:21:18;;;;;;;1999.90;999.90;;;22.80;99.90;;;;;;5156560;27;20053;-66
2023/07/09 06:23:45;;;;;;;1999.90;999.90;;;22.90;99.90;;;;;;5156474;27;20385;-66
2023/07/09 06:26:11;;;;;;;1999.90;999.90;;;22.90;99.90;;;;;;5138441;27;20053;-66
2023/07/09 06:28:37;;;;;;;1999.90;999.90;;;23.00;99.90;;;;;;5138052;27;20095;-66
2023/07/09 06:31:03;;;;;;;1999.90;999.90;;;23.00;99.90;;;;;;5156226;27;20047;-66
2023/07/09 06:33:29;;;;;;;1999.90;999.90;;;23.00;99.90;;;;;;5156088;27;20063;-66
2023/07/09 06:35:58;;;;;;;1999.90;999.90;;;23.00;99.90;;;;;;5138409;27;20103;-66
2023/07/09 06:38:24;;;;;;;1999.90;999.90;;;23.00;99.90;;;;;;5156210;27;20047;-65
2023/07/09 06:40:50;;;;;;;1999.90;999.90;;;23.00;99.90;;;;;;5156157;27;20474;-65
2023/07/09 06:43:17;;;;;;;1999.90;999.90;;;23.10;99.90;;;;;;5156109;27;20049;-66
2023/07/09 06:45:53;;;;;;;1999.90;999.90;;;23.10;99.90;;;;;;5156081;27;20038;-65
2023/07/09 06:48:20;;;;;;;1999.90;999.90;;;23.10;99.90;;;;;;5155970;27;20125;-66
2023/07/09 06:50:46;;;;;;;1999.90;999.90;;;23.10;99.90;;;;;;5155930;27;20049;-65
2023/07/09 06:53:12;;;;;;;1999.90;999.90;;;23.10;99.90;;;;;;5137487;27;20039;-66
2023/07/09 06:55:38;;;;;;;1999.90;999.90;;;23.10;99.90;;;;;;5156587;27;20038;-66
2023/07/09 06:58:04;;;;;;;1999.90;999.90;;;23.10;99.90;;;;;;5156193;27;20041;-66
2023/07/09 07:00:29;;;;;;;1999.90;999.90;;;23.20;99.90;;;;;;5155662;27;20125;-66
2023/07/09 07:02:55;;;;;;;1999.90;999.90;;;23.20;99.90;;;;;;5137209;27;20046;-65
2023/07/09 07:05:21;;;;;;;1999.90;999.90;;;23.20;99.90;;;;;;5155597;27;20398;-65
2023/07/09 07:07:47;;;;;;;1999.90;999.90;;;23.30;99.90;;;;;;5155470;27;20051;-65
2023/07/09 07:10:12;;;;;;;1999.90;999.90;;;23.30;99.90;;;;;;5155478;27;20050;-66
2023/07/09 07:12:45;;;;;;;1999.90;999.90;;;23.40;99.90;;;;;;5155301;27;20053;-65
2023/07/09 07:15:13;;;;;;;1999.90;999.90;;;23.40;99.90;;;;;;5156315;27;20091;-65
2023/07/09 07:17:39;;;;;;;1999.90;999.90;;;23.50;99.90;;;;;;5155405;27;20034;-65
2023/07/09 07:20:06;;;;;;;1999.90;999.90;;;23.60;99.90;;;;;;5155335;27;20057;-65
2023/07/09 07:22:32;;;;;;;1999.90;999.90;;;23.70;99.90;;;;;;5136876;27;20047;-65
2023/07/09 07:24:58;;;;;;;1999.90;999.90;;;23.70;99.90;;;;;;5137037;27;20054;-65
2023/07/09 07:27:23;;;;;;;1999.90;999.90;;;23.70;99.90;;;;;;5155174;27;20552;-65
2023/07/09 07:29:49;;;;;;;1999.90;999.90;;;23.80;99.90;;;;;;5120104;27;20047;-66
2023/07/09 07:32:15;;;;;;;1999.90;999.90;;;23.90;99.90;;;;;;5154869;27;20065;-66
2023/07/09 07:34:41;;;;;;;1999.90;999.90;;;23.90;99.90;;;;;;5155289;27;20054;-65
2023/07/09 07:37:06;;;;;;;1999.90;999.90;;;23.90;99.90;;;;;;5155764;27;20054;-66
2023/07/09 07:39:32;;;;;;;1999.90;999.90;;;24.00;99.90;;;;;;5155766;27;20049;-66
2023/07/09 07:41:58;;;;;;;1999.90;999.90;;;24.00;99.90;;;;;;5155274;27;20043;-65
2023/07/09 07:44:24;;;;;;;1999.90;999.90;;;24.00;99.90;;;;;;5155367;27;20043;-65
2023/07/09 07:46:49;;;;;;;1999.90;999.90;;;24.10;99.90;;;;;;5137171;27;20049;-65
2023/07/09 07:49:15;;;;;;;1999.90;999.90;;;24.10;99.90;;;;;;5136617;27;20046;-66
2023/07/09 07:51:42;;;;;;;1999.90;999.90;;;24.20;99.90;;;;;;5155005;27;20367;-65
2023/07/09 07:54:09;;;;;;;1999.90;999.90;;;24.30;99.90;;;;;;5136915;27;20451;-65
2023/07/09 07:56:36;;;;;;;1999.90;999.90;;;24.30;99.90;;;;;;5137281;27;20121;-65
2023/07/09 07:59:03;;;;;;;1999.90;999.90;;;24.40;99.90;;;;;;5154991;27;20049;-65
2023/07/09 08:01:29;;;;;;;1999.90;999.90;;;24.50;99.90;;;;;;5119712;27;20054;-65
2023/07/09 08:03:54;;;;;;;1999.90;999.90;;;24.60;99.90;;;;;;5154959;27;20047;-65
2023/07/09 08:06:21;;;;;;;1999.90;999.90;;;24.60;99.90;;;;;;5155406;27;20031;-66
2023/07/09 08:08:47;;;;;;;1999.90;999.90;;;24.80;99.90;;;;;;5136145;27;20047;-66
2023/07/09 08:11:14;;;;;;;1999.90;999.90;;;24.80;99.90;;;;;;5155017;27;20049;-65
2023/07/09 08:13:40;;;;;;;1999.90;999.90;;;24.90;99.90;;;;;;5137424;27;20078;-65
2023/07/09 08:16:07;;;;;;;1999.90;999.90;;;24.90;99.90;;;;;;5154933;27;20371;-64
2023/07/09 08:18:33;;;;;;;1999.90;999.90;;;25.00;99.90;;;;;;5154816;27;20403;-65
2023/07/09 08:21:00;;;;;;;1999.90;999.90;;;25.00;99.90;;;;;;5136525;27;20050;-65
2023/07/09 08:23:25;;;;;;;1999.90;999.90;;;25.00;99.90;;;;;;5154787;27;20050;-65
2023/07/09 08:25:59;;;;;;;1999.90;999.90;;;25.10;99.90;;;;;;5154776;27;20493;-65
2023/07/09 08:28:25;;;;;;;1999.90;999.90;;;25.10;99.90;;;;;;5137274;27;20057;-65
2023/07/09 08:30:54;;;;;;;1999.90;999.90;;;25.20;99.90;;;;;;5154710;27;20398;-65
2023/07/09 08:33:22;;;;;;;1999.90;999.90;;;25.20;99.90;;;;;;5155293;27;20118;-65
2023/07/09 08:35:52;;;;;;;1999.90;999.90;;;25.30;99.90;;;;;;5154706;27;20090;-65
2023/07/09 08:38:18;;;;;;;1999.90;999.90;;;25.30;99.90;;;;;;5155165;27;20130;-65
2023/07/09 08:41:08;;;;;;;1999.90;999.90;;;25.40;99.90;;;;;;5140175;27;20050;-65
2023/07/09 08:43:40;;;;;;;1999.90;999.90;;;25.50;99.90;;;;;;5158497;27;20049;-65
2023/07/09 08:46:11;;;;;;;1999.90;999.90;;;25.60;99.90;;;;;;5158410;27;20054;-65
2023/07/09 08:48:43;;;;;;;1999.90;999.90;;;25.70;99.90;;;;;;5158043;27;20494;-65
2023/07/09 08:51:27;;;;;;;1999.90;999.90;;;25.80;99.90;;;;;;5158400;27;20125;-65
2023/07/09 08:53:56;;;;;;;1999.90;999.90;;;25.90;99.90;;;;;;5158472;27;20045;-65
2023/07/09 08:56:23;;;;;;;1999.90;999.90;;;25.90;99.90;;;;;;5139945;27;20130;-65
2023/07/09 08:58:51;;;;;;;1999.90;999.90;;;26.00;99.90;;;;;;5158557;27;20046;-65
2023/07/09 09:01:24;;;;;;;1999.90;999.90;;;26.00;99.90;;;;;;5158336;27;20478;-65
2023/07/09 09:04:03;;;;;;;1999.90;999.90;;;26.10;99.90;;;;;;5158107;27;20046;-65
2023/07/09 09:06:30;;;;;;;1999.90;999.90;;;26.20;99.90;;;;;;5122513;27;20090;-65
2023/07/09 09:09:18;;;;;;;1999.90;999.90;;;26.20;99.90;;;;;;5157732;27;20042;-66
2023/07/09 09:11:48;;;;;;;1999.90;999.90;;;26.30;99.90;;;;;;5158244;27;20047;-66
2023/07/09 09:14:28;;;;;;;1999.90;999.90;;;26.30;99.90;;;;;;5157748;27;20433;-65
2023/07/09 09:16:55;;;;;;;1999.90;999.90;;;26.30;99.90;;;;;;5157799;27;20095;-66
2023/07/09 09:19:37;;;;;;;1999.90;999.90;;;26.30;99.90;;;;;;5158525;27;20059;-66
2023/07/09 09:22:13;;;;;;;1999.90;999.90;;;26.40;99.90;;;;;;5157679;27;20038;-66
2023/07/09 09:24:55;;;;;;;1999.90;999.90;;;26.40;99.90;;;;;;5157360;27;20557;-66
2023/07/09 09:27:20;;;;;;;1999.90;999.90;;;26.50;99.90;;;;;;5158446;27;20186;-66
2023/07/09 09:29:46;;;;;;;1999.90;999.90;;;26.50;99.90;;;;;;5139499;27;20074;-66
2023/07/09 09:32:26;;;;;;;1999.90;999.90;;;26.50;99.90;;;;;;5157178;27;20053;-66
2023/07/09 09:34:52;;;;;;;1999.90;999.90;;;26.60;99.90;;;;;;5157377;27;20462;-65
2023/07/09 09:37:31;;;;;;;1999.90;999.90;;;26.70;99.90;;;;;;5157324;27;20056;-65
2023/07/09 09:39:59;;;;;;;1999.90;999.90;;;26.70;99.90;;;;;;5158075;27;20043;-66
2023/07/09 09:42:25;;;;;;;1999.90;999.90;;;26.80;99.90;;;;;;5157155;27;20049;-66
2023/07/09 09:44:54;;;;;;;1999.90;999.90;;;26.90;99.90;;;;;;5157714;27;20049;-66
2023/07/09 09:47:20;;;;;;;1999.90;999.90;;;26.90;99.90;;;;;;5157173;27;20047;-65
2023/07/09 09:49:46;;;;;;;1999.90;999.90;;;27.00;99.90;;;;;;5157081;27;20054;-66
2023/07/09 09:52:18;;;;;;;1999.90;999.90;;;27.10;99.90;;;;;;5157010;27;20045;-66
2023/07/09 09:54:53;;;;;;;1999.90;999.90;;;27.20;99.90;;;;;;5158042;27;20110;-65
2023/07/09 09:57:22;;;;;;;1999.90;999.90;;;27.30;99.90;;;;;;5156702;27;20082;-66
2023/07/09 09:59:48;;;;;;;1999.90;999.90;;;27.40;99.90;;;;;;5138434;27;20042;-66
2023/07/09 10:02:20;;;;;;;1999.90;999.90;;;27.40;99.90;;;;;;5157389;27;20066;-66
2023/07/09 10:04:47;;;;;;;1999.90;999.90;;;27.40;99.90;;;;;;5156552;27;20552;-66
2023/07/09 10:07:34;;;;;;;1999.90;999.90;;;27.50;99.90;;;;;;5139295;27;20046;-66
2023/07/09 10:10:01;;;;;;;1999.90;999.90;;;27.50;99.90;;;;;;5156775;27;20478;-66
2023/07/09 10:12:36;;;;;;;1999.90;999.90;;;27.60;99.90;;;;;;5156576;27;20523;-66
2023/07/09 10:15:33;;;;;;;1999.90;999.90;;;27.60;99.90;;;;;;5156344;27;20046;-66
2023/07/09 10:18:10;;;;;;;1999.90;999.90;;;27.60;99.90;;;;;;5138533;27;20058;-66
2023/07/09 10:20:47;;;;;;;1999.90;999.90;;;27.70;99.90;;;;;;5156488;27;20043;-66
2023/07/09 10:23:52;;;;;;;1999.90;999.90;;;27.80;99.90;;;;;;5156854;27;20081;-67
2023/07/09 10:26:23;;;;;;;1999.90;999.90;;;27.80;99.90;;;;;;5155935;27;20054;-67
2023/07/09 10:29:26;;;;;;;1999.90;999.90;;;27.90;99.90;;;;;;5156419;27;20133;-67
2023/07/09 10:32:14;;;;;;;1999.90;999.90;;;27.90;99.90;;;;;;5156009;27;20042;-66
2023/07/09 10:34:49;;;;;;;1999.90;999.90;;;28.00;99.90;;;;;;5138604;27;20054;-67
2023/07/09 10:37:28;;;;;;;1999.90;999.90;;;28.10;99.90;;;;;;5138606;27;20125;-66
2023/07/09 10:39:59;;;;;;;1999.90;999.90;;;28.20;99.90;;;;;;5156218;27;20046;-66
2023/07/09 10:42:40;;;;;;;1999.90;999.90;;;28.20;99.90;;;;;;5138677;27;20070;-66
2023/07/09 10:45:13;;;;;;;1999.90;999.90;;;28.30;99.90;;;;;;5156684;27;20042;-66
2023/07/09 10:47:45;;;;;;;1999.90;999.90;;;28.30;99.90;;;;;;5156021;27;20053;-66
2023/07/09 10:50:23;;;;;;;1999.90;999.90;;;28.30;99.90;;;;;;5156061;27;20054;-66
2023/07/09 10:52:53;;;;;;;1999.90;999.90;;;28.40;99.90;;;;;;5156399;27;20042;-67
2023/07/09 10:55:32;;;;;;;1999.90;999.90;;;28.40;99.90;;;;;;5156346;27;20047;-66
2023/07/09 10:58:02;;;;;;;1999.90;999.90;;;28.40;99.90;;;;;;5156678;27;20039;-67
2023/07/09 11:00:35;;;;;;;1999.90;999.90;;;28.40;99.90;;;;;;5155705;27;20045;-67
2023/07/09 11:03:15;;;;;;;1999.90;999.90;;;28.50;99.90;;;;;;5137425;27;20050;-66
2023/07/09 11:05:41;;;;;;;1999.90;999.90;;;28.50;99.90;;;;;;5155293;27;20039;-67
2023/07/09 11:08:22;;;;;;;1999.90;999.90;;;28.50;99.90;;;;;;5155426;27;20478;-66
2023/07/09 11:10:58;;;;;;;1999.90;999.90;;;28.60;99.90;;;;;;5155651;27;20039;-66
2023/07/09 11:13:47;;;;;;;1999.90;999.90;;;28.70;99.90;;;;;;5155858;27;20043;-67
2023/07/09 11:16:22;;;;;;;1999.90;999.90;;;28.70;99.90;;;;;;5136986;27;20130;-67
2023/07/09 11:18:56;;;;;;;1999.90;999.90;;;28.80;99.90;;;;;;5137529;27;20050;-67
2023/07/09 11:21:22;;;;;;;1999.90;999.90;;;28.80;99.90;;;;;;5155676;27;20047;-66
2023/07/09 11:23:53;;;;;;;1999.90;999.90;;;28.80;99.90;;;;;;5155507;27;20062;-68
2023/07/09 11:26:32;;;;;;;1999.90;999.90;;;28.80;99.90;;;;;;5138007;27;20122;-66
2023/07/09 11:29:07;;;;;;;1999.90;999.90;;;28.90;99.90;;;;;;5155302;27;20129;-67
2023/07/09 11:31:41;;;;;;;1999.90;999.90;;;28.90;99.90;;;;;;5155897;27;20065;-67
2023/07/09 11:34:07;;;;;;;1999.90;999.90;;;28.90;99.90;;;;;;5155956;27;20054;-66
2023/07/09 11:36:34;;;;;;;1999.90;999.90;;;28.90;99.90;;;;;;5155828;27;20050;-66
2023/07/09 11:39:00;;;;;;;1999.90;999.90;;;29.00;99.70;;;;;;5156089;27;20097;-67
2023/07/09 11:41:46;;;;;;;1999.90;999.90;;;29.00;99.40;;;;;;5155278;27;20390;-67
2023/07/09 11:44:17;;;;;;;1999.90;999.90;;;29.00;99.40;;;;;;5156167;27;20441;-66
2023/07/09 11:46:58;;;;;;;1999.90;999.90;;;29.10;99.10;;;;;;5155248;27;20078;-66
2023/07/09 11:49:27;;;;;;;1999.90;999.90;;;29.20;99.30;;;;;;5155196;27;20054;-67
2023/07/09 11:51:58;;;;;;;1999.90;999.90;;;29.20;98.90;;;;;;5155144;27;20125;-67
2023/07/09 11:54:24;;;;;;;1999.90;999.90;;;29.20;99.10;;;;;;5155254;27;20046;-66
2023/07/09 11:56:57;;;;;;;1999.90;999.90;;;29.30;98.80;;;;;;5154878;27;20039;-66
2023/07/09 11:59:24;;;;;;;1999.90;999.90;;;29.40;98.70;;;;;;5136598;27;20049;-67
2023/07/09 12:01:54;;;;;;;1999.90;999.90;;;29.40;98.40;;;;;;5137177;27;20117;-67
2023/07/09 12:04:22;;;;;;;1999.90;999.90;;;29.40;98.50;;;;;;5155939;27;20042;-67
2023/07/09 12:06:48;;;;;;;1999.90;999.90;;;29.40;98.90;;;;;;5154737;27;20051;-67
2023/07/09 12:09:18;;;;;;;1999.90;999.90;;;29.40;98.90;;;;;;5136684;27;20054;-66